Ride Results

Bright (05-10-2013)
Ride distance: 80.0 km

Outcomes - Bright (05-10-2013)
Division No. of Entries Retired / DNE Completed Withdrawn Ineligible V/O Percentage Completed
HW 6 - 6 - - - 100.00%
MW 11 - 10 - - 1 90.91%
LW 5 - 3 - - 2 60.00%
JN 2 - 1 - - 1 50.00%
Totals 24 - 20 - - 4 83.33%
Results - Bright (05-10-2013)
No. Rider Horse Place Time Leg Speeds Total
Km/Hr
H/R bpm
Heavyweight
765 Andrew Kettlewell Oso Laredo 1 (BC) 5:34:00 16.6, 12.6 14.37 44, 49, 46 (Avg:47)
177 Vincent Comer Matta Mia Daniel 2 6:35:00 12.5, 11.7 12.15 37, 43, 48 (Avg:45)
231 Tim Wall Musical Gully Samba 3 7:45:00 10.9, 9.7 10.32 30, 43, 52 (Avg:47)
337 Allison Whitney Tarrangower Midnight Symphony 4 7:54:00 11.3, 9.1 10.13 38, 45, 50 (Avg:47)
770 Jessica Dastani Bar Diamond Impulse 5 8:07:00 10.3, 9.3 9.86 40, 46, 48 (Avg:47)
763 Wendy Lightowler Kalatha Park Shahraz 6 8:08:00 11.0, 8.8 9.84 33, 43, 45 (Avg:44)
Middleweight
766 Amanda Kettlewell Oso Lorikeet 1 (BC) 4:57:00 16.6, 15.6 16.16 40, 44, 48 (Avg:46)
238 Kerri Kingston Mytkyina 2 5:03:00 16.6, 15.0 15.84 37, 46, 60 (Avg:53)
195 Nikita Verspaandonk Mullungdung Blue Belle 3 6:31:00 12.8, 11.7 12.28 47, 50, 54 (Avg:52)
126 Wendy Riha Splitters Creek Nimrod 4 6:35:00 12.0, 12.2 12.15 43, 44, 49 (Avg:46)
764 Ava Pellizzari Zzariava Valentino 5 7:01:00 12.8, 10.2 11.40 37, 39, 50 (Avg:44)
53 Beverley Rayner-Mason Ainslie Ribbon 5 7:01:00 12.8, 10.2 11.40 36, 52, 53 (Avg:52)
762 Kristie Wright Cooroora Allyjah 7 7:23:00 11.3, 10.3 10.84 34, 43, 47 (Avg:45)
100 Fay Bushby Western Bey 8 7:38:00 11.2, 9.7 10.48 34, 40, 48 (Avg:44)
157 Melinda Williams Lord Anthony of Seven Oaks 8 7:38:00 11.2, 9.7 10.48 46, 44, 53 (Avg:48)
254 Danielle Griffin Castle Downs Challenge 10 8:08:00 11.0, 8.8 9.84 43, 44, 55 (Avg:49)
168 Trish VanDonk Mullungdung Begorrah Heart Rate L2 0:00:00 12.8, 11.7 - 43, 48, 65 (Avg:56)
Lightweight
760 Bianca Whitehead Kelkette Park Deity 1 (BC) 6:27:00 11.8, 12.9 12.40 38, 45, 54 (Avg:49)
761 Chloe Paton Asiya Contessa 2 7:23:00 11.3, 10.3 10.84 38, 45, 55 (Avg:50)
767 Courtney Chapman Jirrima Designer 3 8:07:00 10.3, 9.3 9.86 42, 41, 44 (Avg:42)
769 Bridie Lewis Wakado Sharkhan Heart Rate L2 0:00:00 16.6, 15.6 - 44, 48, 75 (Avg:61)
91 Kim Noble Quindelin Desert Gleam Lame L2 0:00:00 11.7, 9.9 - 36, 41, 46 (Avg:43)
Junior
771 Stacey Clarke Oso Bandit 1 (BC) 4:57:00 16.6, 15.6 16.16 40, 48, 48 (Avg:48)
90 Alison Noble Springridge Locksley Heart Rate L2 0:00:00 11.7, 9.9 - 36, 44, 66 (Avg:55)